Ana Sayfa
METAR-TAF:

METAR-TAF

Havaalanları :

Kirsch Municipal Airport

Sturgis, Michigan, Amerika Birleşik Devletleri

Enlem: 41-48-46N, Boylam: 085-26-21W, yükseklik: 282 m

Güncel hava durumu gözlemi

Rapor saat 08:15 UTC de 14 dakika önce yapıldı.
Sakin rüzgar
Sıcaklık -1°C
Nem 80%
Basınç 1020 hPa
Görüş mesafesi: 16.1 km
2000 ft yükseklikte çok bulutlu

METAR: KIRS 290815Z AUTO 00000KT 10SM OVC020 M01/M04 A3013 RMK AO2 T10071038

Saat: 03:29 (08:29 UTC)


TAF: eksik

4.000'den fazla havaalanı için hava durumu gözlemleri ve tahminleri (METAR ve TAF raporları).

Kullanılabilir istasyonlar harita üzerinde sarı ve kırmızı noktalarla gösterilir.

İstasyonun adını görmek için fareyi noktanın üzerinde gezdirin.

Sonrasında hava gözlem ve tahminlerini görmek için tıklayın.

Haritayı değiştirmek için: yaklaştırmak için siyah artı işaretli yeşil düğmeye ve uzaklaştırmak için de eksi işaretli düğmeye hızla tıklayın; bitişik haritalar için yeşil okları kullanın.


METAR-TAF: